KGLE/GLE METAR and TAF weather

Enter ICAO airport designator
Station Type Date Time Source
KGLE METAR 2019/02/16 07:15 UTC NOAA

KGLE 160715Z AUTO 34011KT 10SM OVC013 00/M03 A3000 RMK AO2 T10041032


Station Type Date Time Source
KGLE Decoded METAR 2019/02/16 07:15 UTC NOAA

Gainesville, Gainesville Municipal Airport, TX, United States (KGLE) 33-39-05N 097-11-49W
Feb 16, 2019 - 02:15 AM EST / 2019.02.16 0715 UTC
Wind: from the NNW (340 degrees) at 13 MPH (11 KT):0
Visibility: 10 mile(s):0
Sky conditions: overcast
Temperature: 31.3 F (-0.4 C)
Windchill: 21 F (-6 C):1
Dew Point: 26.2 F (-3.2 C)
Relative Humidity: 81%
Pressure (altimeter): 30 in. Hg (1015 hPa)
ob: KGLE 160715Z AUTO 34011KT 10SM OVC013 00/M03 A3000 RMK AO2 T10041032
cycle: 7

Station Type Date Time Source
KGLE TAF UTC NOAA

Error!


Example: see airport list